ESSAESKN

Guest
Details From ESSA - Stockholm Arlanda
To ESKN - Stockholm Skavsta
Flight Number -
Tags Generated
Created
Modified
Stats Distance 59 nm / 109 km
Max Altitude 0 ft / 0 m
Waypoints 2
Social Downloads 3
Likes 0
Share VATSIM

Download

Looking for another format? Having issues loading an existing format? Contact us
Advertisement - Login to hide

Notes

Generated

Route

ESSA ESKN

ID Type Via Altitude Latitude Longitude Leg Dist Tot Dist Heading (true) Name
O ESSA APT - 0 ft / 0 m 59.62640˚ 17.95074˚ - 0 nm - -
O ESKN APT - 0 ft / 0 m 58.80136˚ 16.90408˚ 59 nm 59 nm 213° / 213° -

Altitude Profile

Advertisement - Login to hide

ESSA

Details ICAO ESSA (ARN)
Name Stockholm Arlanda
Region Sweden
Timezone Europe/Stockholm (UTC+2.0)
Stats Elevation 137 ft / 42 m (AMSL)
Location 59.650140° 17.943628°
Runways 3
Magnetic Variation 6.171° E

METAR

ESSA 222220Z 18005KT CAVOK 13/05 Q1018 NOSIG

Decode

TAF

TAF ESSA 221730Z 2218/2318 16010KT CAVOK BECMG 2302/2304 36012KT

Decode

Departure Runways

ID Width Length Bearing (true) Bearing (mag) Surface Threshold Offset Overrun Length
01L 148 ft / 45 m 10,812 ft / 3,296 m 10.35° 4.18° Concrete 0 ft / 0 m 0 ft / 0 m
01R 148 ft / 45 m 8,188 ft / 2,496 m 10.38° 4.21° Asphalt 0 ft / 0 m 0 ft / 0 m
08 148 ft / 45 m 8,178 ft / 2,493 m 75.83° 69.66° Concrete 0 ft / 0 m 0 ft / 0 m
19L 148 ft / 45 m 8,188 ft / 2,496 m 190.39° 184.22° Asphalt 0 ft / 0 m 0 ft / 0 m
19R 148 ft / 45 m 10,812 ft / 3,296 m 190.36° 184.19° Concrete 0 ft / 0 m 0 ft / 0 m
26 148 ft / 45 m 8,178 ft / 2,493 m 255.87° 249.70° Concrete 0 ft / 0 m 0 ft / 0 m

ESKN

Details ICAO ESKN (NYO)
Name Stockholm Skavsta
Region Sweden
Timezone Europe/Stockholm (UTC+2.0)
Stats Elevation 140 ft / 43 m (AMSL)
Location 58.790439° 16.907328°
Runways 2
Magnetic Variation 5.635° E

METAR

ESKN 222220Z 27001KT CAVOK 10/08 Q1019

Decode

TAF

TAF ESKN 221730Z 2218/2318 16006KT CAVOK BECMG 2304/2306 36010KT

Decode

Destination Runways

ID Width Length Bearing (true) Bearing (mag) Surface Threshold Offset Overrun Length
08 148 ft / 45 m 9,411 ft / 2,869 m 83.05° 77.41° Asphalt 420 ft / 128 m 0 ft / 0 m
16 131 ft / 40 m 6,679 ft / 2,036 m 161.82° 156.18° Asphalt 0 ft / 0 m 0 ft / 0 m
26 148 ft / 45 m 9,411 ft / 2,869 m 263.10° 257.46° Asphalt 0 ft / 0 m 0 ft / 0 m
34 131 ft / 40 m 6,679 ft / 2,036 m 341.83° 336.19° Asphalt 0 ft / 0 m 0 ft / 0 m

Approach Navaids

Runway Type Ident Frequency Range Bearing (true) Bearing (mag) Slope Elevation
08 Localiser WEK 111.30 MHz 18 nm / 33 km 83.07° 77.44° - 140 ft / 43 m (AMSL)
26 Localiser EKN 111.90 MHz 18 nm / 33 km 263.02° 257.39° - 140 ft / 43 m (AMSL)
26 Glidescope EKN 111.90 MHz 10 nm / 19 km 263.07° 257.44° 3.00° 140 ft / 43 m (AMSL)

Popular Alternatives